Welcome to the updated website with new and more accurate equipment. Established 2007


Active alerts


No alerts

Local Station more information Local Station


Mount Mesnard more information Mount Mesnard


Visit our other weather sites:

Template documentation
and downloads

And another site


CBI


Nearby METAR Reports

   
KSAW - Sawyer, Michigan
Updated: 18-10-2018 20:46
Clear  
Clear  
   Wind: SSW 10.4 mph
Wind: SSW 10.4 mph
Temperature: 48.2°F
Wind Chill: 44.6°F
Dew Point: 32°F
Humidity: 54%
Barometer: 30.02 inHg
Clouds: Clear
Visibility: 10 mi
Cloud details: Clear
KSAW 190046Z 20009KT 10SM SKC 09/00 A3002
KESC - Escanaba, Michigan
Updated: 18-10-2018 20:56
Clear  
Clear  
   Wind: SW 10.4 mph
Wind: SW 10.4 mph
Temperature: 51.8°F
Dew Point: 32°F
Humidity: 47%
Barometer: 30.09 inHg
Clouds: Clear
Visibility: 10 mi
Cloud details: Clear
KESC 190056Z AUTO 22009KT 10SM CLR 11/00 A3009 RMK AO2 SLP215 T01060000
KIMT - Iron Mountain, MI
Updated: 18-10-2018 20:54
Clear  
Clear  
   Wind: SW 10.4 mph
Wind: SW 10.4 mph
Temperature: 51.8°F
Dew Point: 33.8°F
Humidity: 50%
Barometer: 30.07 inHg
Clouds: Clear
Visibility: 10 mi
Cloud details: Clear
KIMT 190054Z AUTO 22009KT 10SM CLR 11/01 A3007 RMK AO2 SLP196 T01110011
KGRB - Green Bay, WI
Updated: 18-10-2018 20:53
Clear  
Clear  
   Wind: SSW 8.1 mph
Wind: SSW 8.1 mph
Temperature: 50°F
Wind Chill: 46.4°F
Dew Point: 35.6°F
Humidity: 58%
Barometer: 30.18 inHg
Clouds: Clear
Visibility: 10 mi
Cloud details: Clear
KGRB 190053Z 21007KT 10SM CLR 10/02 A3018 RMK AO2 SLP228 T01000022
KDET - Detroit, MI
Updated: 18-10-2018 20:53
Clear  
Clear  
   Wind: SW 8.1 mph
Wind: SW 8.1 mph
Temperature: 46.4°F
Wind Chill: 42.8°F
Dew Point: 28.4°F
Humidity: 50%
Barometer: 30.35 inHg
Clouds: Clear
Visibility: 10 mi
Cloud details: Clear
KDET 190053Z 23007KT 10SM CLR 08/M02 A3035 RMK AO2 SLP281 T00781017
 

Script developed by  Saratoga-weather.org Adapted for the template by  Weerstation Leuven

You find our weather info also at:

Weather Underground

Midwestern Weather Network

WeatherlinkIP

Citizen Weather Observer Program (CWOP)

Equipment we use:

Weather-station
Davis VP2

Weather-program
Davis Weatherlink.Com

Davis VP2

Davis Weatherlink.Com